createdAt,value
2023-04-01T00:00:56.936Z,100.00
2023-04-01T00:04:58.962Z,98.99
2023-04-01T00:09:01.148Z,94.74
2023-04-01T00:13:03.261Z,94.46
2023-04-01T00:17:05.329Z,95.00
2023-04-01T00:21:07.652Z,95.62
2023-04-01T00:25:10.302Z,95.97
2023-04-01T00:29:12.398Z,97.03
2023-04-01T00:33:15.270Z,98.14
2023-04-01T00:37:17.409Z,98.00
2023-04-01T00:41:21.986Z,98.37
2023-04-01T00:45:29.183Z,98.60
2023-04-01T00:49:37.984Z,97.94
2023-04-01T00:53:44.202Z,96.89
2023-04-01T00:57:49.116Z,96.90
2023-04-01T01:01:51.342Z,96.91
2023-04-01T01:06:09.616Z,96.78
2023-04-01T01:10:24.214Z,97.00
2023-04-01T01:14:49.183Z,97.13
2023-04-01T01:18:58.956Z,97.78
2023-04-01T01:23:39.203Z,98.15
2023-04-01T01:27:46.237Z,97.31
2023-04-01T01:32:08.291Z,97.16
2023-04-01T01:36:14.882Z,97.82
2023-04-01T01:40:18.272Z,97.73
2023-04-01T01:44:22.063Z,98.26
2023-04-01T01:48:27.530Z,99.18
2023-04-01T01:52:30.330Z,99.00
2023-04-01T01:56:36.133Z,99.55
2023-04-01T02:00:39.084Z,100.00
2023-04-01T02:04:44.720Z,99.97
2023-04-01T02:09:08.750Z,100.00
2023-04-01T02:13:21.463Z,100.00
2023-04-01T02:17:27.561Z,100.00
2023-04-01T02:21:33.278Z,100.00
2023-04-01T02:25:38.278Z,100.00
2023-04-01T02:29:40.634Z,100.00
2023-04-01T02:33:43.514Z,100.00
2023-04-01T02:37:47.820Z,100.00
2023-04-01T02:41:49.858Z,100.00
2023-04-01T02:45:51.885Z,100.00
2023-04-01T02:49:59.412Z,100.00
2023-04-01T02:54:02.210Z,100.00
2023-04-01T02:58:04.906Z,100.00
2023-04-01T03:02:07.878Z,100.00
2023-04-01T03:06:12.714Z,100.00
2023-04-01T03:10:15.020Z,100.00
2023-04-01T03:14:17.179Z,100.00
2023-04-01T03:18:19.823Z,100.00
2023-04-01T03:22:22.026Z,100.00
2023-04-01T03:26:24.084Z,100.00
2023-04-01T03:30:27.603Z,100.00
2023-04-01T03:34:29.696Z,100.00
2023-04-01T03:38:32.044Z,100.00
2023-04-01T03:42:34.329Z,100.00
2023-04-01T03:46:36.573Z,100.00
2023-04-01T03:50:38.757Z,100.00
2023-04-01T03:54:41.047Z,100.00
2023-04-01T03:58:43.318Z,100.00
2023-04-01T04:02:46.451Z,100.00
2023-04-01T04:06:54.277Z,100.00
2023-04-01T04:10:57.959Z,100.00
2023-04-01T04:15:00.692Z,100.00
2023-04-01T04:19:03.514Z,100.00
2023-04-01T04:23:05.632Z,100.00
2023-04-01T04:27:07.750Z,100.00
2023-04-01T04:31:13.254Z,100.00
2023-04-01T04:35:17.382Z,100.00
2023-04-01T04:39:19.588Z,100.00
2023-04-01T04:43:22.664Z,100.00
2023-04-01T04:47:24.923Z,100.00
2023-04-01T04:51:27.166Z,100.00
2023-04-01T04:55:29.428Z,100.00
2023-04-01T04:59:51.369Z,100.00
2023-04-01T05:04:01.404Z,100.00
2023-04-01T05:08:03.490Z,100.00
2023-04-01T05:12:05.978Z,100.00
2023-04-01T05:16:40.487Z,100.00
2023-04-01T05:20:50.925Z,100.00
2023-04-01T05:24:53.661Z,100.00
2023-04-01T05:28:55.820Z,100.00
2023-04-01T05:32:57.972Z,100.00
2023-04-01T05:37:00.335Z,100.00
2023-04-01T05:41:04.234Z,100.00
2023-04-01T05:45:09.583Z,100.00
2023-04-01T05:49:37.209Z,100.00
2023-04-01T05:53:40.060Z,100.00
2023-04-01T05:57:42.263Z,100.00
2023-04-01T06:01:44.799Z,100.00
2023-04-01T06:05:47.417Z,100.00
2023-04-01T06:09:49.874Z,100.00
2023-04-01T06:14:06.191Z,100.00
2023-04-01T06:18:37.145Z,100.00
2023-04-01T06:23:13.494Z,100.00
2023-04-01T06:28:03.921Z,100.00
2023-04-01T06:32:27.155Z,100.00
2023-04-01T06:36:49.900Z,100.00
2023-04-01T06:41:10.416Z,100.00
2023-04-01T06:45:32.323Z,100.00
2023-04-01T06:50:06.065Z,100.00
2023-04-01T06:54:38.511Z,100.00
2023-04-01T06:59:01.082Z,100.00
2023-04-01T07:03:17.163Z,96.90
2023-04-01T07:07:33.617Z,97.02
2023-04-01T07:11:39.765Z,97.75
2023-04-01T07:16:21.520Z,98.17
2023-04-01T07:20:36.159Z,98.39
2023-04-01T07:24:43.982Z,98.60
2023-04-01T07:28:46.317Z,98.88
2023-04-01T07:33:16.245Z,98.31
2023-04-01T07:37:28.286Z,97.85
2023-04-01T07:41:45.690Z,96.73
2023-04-01T07:46:05.371Z,95.48
2023-04-01T07:50:28.644Z,91.92
2023-04-01T07:54:47.478Z,91.87
2023-04-01T07:58:54.891Z,90.11
2023-04-01T08:03:56.496Z,90.87
2023-04-01T08:08:17.394Z,89.93
2023-04-01T08:12:53.257Z,90.78
2023-04-01T08:18:11.163Z,91.24
2023-04-01T08:22:24.773Z,91.13
2023-04-01T08:26:43.691Z,91.47
2023-04-01T08:30:56.431Z,91.91
2023-04-01T08:35:16.764Z,91.87
2023-04-01T08:39:31.003Z,92.94
2023-04-01T08:43:56.043Z,93.34
2023-04-01T08:48:22.128Z,91.71
2023-04-01T08:52:48.121Z,92.70
2023-04-01T08:57:11.186Z,93.33
2023-04-01T09:01:32.858Z,93.04
2023-04-01T09:06:13.138Z,93.31
2023-04-01T09:10:41.437Z,92.30
2023-04-01T09:15:28.155Z,90.54
2023-04-01T09:20:03.968Z,88.79
2023-04-01T09:24:43.261Z,89.44
2023-04-01T09:29:03.236Z,88.25
2023-04-01T09:33:17.486Z,86.67
2023-04-01T09:37:38.938Z,86.38
2023-04-01T09:42:13.794Z,86.13
2023-04-01T09:46:37.062Z,85.20
2023-04-01T09:51:04.049Z,84.09
2023-04-01T09:55:56.287Z,83.70
2023-04-01T10:00:35.017Z,83.93
2023-04-01T10:04:56.137Z,82.97
2023-04-01T10:09:33.120Z,82.71
2023-04-01T10:13:57.791Z,84.38
2023-04-01T10:18:05.933Z,85.02
2023-04-01T10:22:37.498Z,84.70
2023-04-01T10:26:59.400Z,83.64
2023-04-01T10:31:40.422Z,84.45
2023-04-01T10:36:12.156Z,84.50
2023-04-01T10:40:40.024Z,84.45
2023-04-01T10:45:45.648Z,89.06
2023-04-01T10:50:10.887Z,87.94
2023-04-01T10:54:37.402Z,86.05
2023-04-01T10:59:08.604Z,87.16
2023-04-01T11:03:32.243Z,78.21
2023-04-01T11:08:15.899Z,80.11
2023-04-01T11:12:24.103Z,82.03
2023-04-01T11:17:03.247Z,83.20
2023-04-01T11:21:37.972Z,84.59
2023-04-01T11:26:17.649Z,83.39
2023-04-01T11:31:01.501Z,81.55
2023-04-01T11:35:17.012Z,82.10
2023-04-01T11:39:31.207Z,81.81
2023-04-01T11:44:16.007Z,82.70
2023-04-01T11:49:03.880Z,82.55
2023-04-01T11:53:23.593Z,84.33
2023-04-01T11:57:31.942Z,84.28
2023-04-01T12:01:49.041Z,84.50
2023-04-01T12:05:53.799Z,84.67
2023-04-01T12:10:38.994Z,86.30
2023-04-01T12:14:53.395Z,86.13
2023-04-01T12:19:02.671Z,87.09
2023-04-01T12:23:20.004Z,85.28
2023-04-01T12:27:46.614Z,86.10
2023-04-01T12:32:01.476Z,86.56
2023-04-01T12:36:28.299Z,86.19
2023-04-01T12:40:36.204Z,84.25
2023-04-01T12:45:02.118Z,82.87
2023-04-01T12:49:24.314Z,82.38
2023-04-01T12:53:35.034Z,81.01
2023-04-01T12:58:18.215Z,80.42
2023-04-01T13:02:48.364Z,83.47
2023-04-01T13:07:27.801Z,83.20
2023-04-01T13:11:32.608Z,81.59
2023-04-01T13:15:52.297Z,78.17
2023-04-01T13:20:08.277Z,79.63
2023-04-01T13:24:29.532Z,78.81
2023-04-01T13:28:41.371Z,79.20
2023-04-01T13:33:08.531Z,79.29
2023-04-01T13:37:50.517Z,79.41
2023-04-01T13:41:55.613Z,77.75
2023-04-01T13:46:03.751Z,78.75
2023-04-01T13:50:24.660Z,79.58
2023-04-01T13:55:03.762Z,80.23
2023-04-01T13:59:16.418Z,79.91
2023-04-01T14:03:51.237Z,78.27
2023-04-01T14:08:05.414Z,78.54
2023-04-01T14:12:41.119Z,79.76
2023-04-01T14:17:02.061Z,79.78
2023-04-01T14:21:34.290Z,79.72
2023-04-01T14:26:04.797Z,79.66
2023-04-01T14:30:33.580Z,78.45
2023-04-01T14:35:18.031Z,78.40
2023-04-01T14:39:35.504Z,77.80
2023-04-01T14:43:43.671Z,75.32
2023-04-01T14:47:57.028Z,75.08
2023-04-01T14:52:12.422Z,73.90
2023-04-01T14:56:38.684Z,74.59
2023-04-01T15:01:05.740Z,75.73
2023-04-01T15:05:08.117Z,78.03
2023-04-01T15:09:36.094Z,78.10
2023-04-01T15:13:59.366Z,81.09
2023-04-01T15:18:36.662Z,81.23
2023-04-01T15:22:41.798Z,80.24
2023-04-01T15:26:59.835Z,77.11
2023-04-01T15:31:18.616Z,75.57
2023-04-01T15:35:36.706Z,76.64
2023-04-01T15:40:15.987Z,78.60
2023-04-01T15:44:53.442Z,80.79
2023-04-01T15:49:10.056Z,82.56
2023-04-01T15:53:17.977Z,84.39
2023-04-01T15:57:41.723Z,83.50
2023-04-01T16:02:14.718Z,85.06
2023-04-01T16:06:44.846Z,86.65
2023-04-01T16:11:09.701Z,88.98
2023-04-01T16:15:26.997Z,91.05
2023-04-01T16:19:42.333Z,94.29
2023-04-01T16:24:01.736Z,95.42
2023-04-01T16:28:29.568Z,95.47
2023-04-01T16:32:56.084Z,96.49
2023-04-01T16:37:20.869Z,96.01
2023-04-01T16:41:33.258Z,95.82
2023-04-01T16:45:44.237Z,96.22
2023-04-01T16:49:57.509Z,96.05
2023-04-01T16:54:07.971Z,96.67
2023-04-01T16:58:12.263Z,97.50
2023-04-01T17:02:21.454Z,97.98
2023-04-01T17:06:40.916Z,98.95
2023-04-01T17:10:51.237Z,99.02
2023-04-01T17:15:10.865Z,97.94
2023-04-01T17:19:43.491Z,98.85
2023-04-01T17:24:06.449Z,100.00
2023-04-01T17:28:27.398Z,100.00
2023-04-01T17:33:06.693Z,99.46
2023-04-01T17:37:46.630Z,98.71
2023-04-01T17:42:10.495Z,98.80
2023-04-01T17:46:40.500Z,100.00
2023-04-01T17:50:58.998Z,100.00
2023-04-01T17:55:38.607Z,100.00
2023-04-01T17:59:55.500Z,100.00
2023-04-01T18:04:03.978Z,100.00
2023-04-01T18:08:28.010Z,100.00
2023-04-01T18:13:19.289Z,100.00
2023-04-01T18:17:46.160Z,100.00
2023-04-01T18:21:53.110Z,100.00
2023-04-01T18:26:09.184Z,100.00
2023-04-01T18:30:11.132Z,100.00
2023-04-01T18:34:41.446Z,100.00
2023-04-01T18:39:02.944Z,100.00
2023-04-01T18:43:42.447Z,100.00
2023-04-01T18:47:52.506Z,100.00
2023-04-01T18:52:00.306Z,100.00
2023-04-01T18:56:04.593Z,100.00
2023-04-01T19:00:17.173Z,100.00
2023-04-01T19:04:34.936Z,100.00
2023-04-01T19:08:40.217Z,100.00
2023-04-01T19:12:56.224Z,100.00
2023-04-01T19:17:10.930Z,100.00
2023-04-01T19:22:00.383Z,100.00
2023-04-01T19:26:07.456Z,100.00
2023-04-01T19:30:15.322Z,100.00
2023-04-01T19:34:29.461Z,100.00
2023-04-01T19:38:40.115Z,100.00
2023-04-01T19:42:44.982Z,100.00
2023-04-01T19:46:52.760Z,100.00
2023-04-01T19:51:08.406Z,100.00
2023-04-01T19:55:20.730Z,100.00
2023-04-01T19:59:44.127Z,100.00
2023-04-01T20:03:56.962Z,100.00
2023-04-01T20:08:25.222Z,100.00
2023-04-01T20:12:52.195Z,100.00
2023-04-01T20:17:02.280Z,100.00
2023-04-01T20:21:17.741Z,100.00
2023-04-01T20:25:27.420Z,100.00
2023-04-01T20:29:44.263Z,100.00
2023-04-01T20:34:09.555Z,100.00
2023-04-01T20:38:28.541Z,100.00
2023-04-01T20:42:57.238Z,100.00
2023-04-01T20:47:34.751Z,100.00
2023-04-01T20:51:41.727Z,100.00
2023-04-01T20:56:05.246Z,100.00
2023-04-01T21:00:29.970Z,100.00
2023-04-01T21:05:11.302Z,100.00
2023-04-01T21:09:50.050Z,100.00
2023-04-01T21:14:32.031Z,100.00
2023-04-01T21:19:09.857Z,100.00
2023-04-01T21:23:24.026Z,100.00
2023-04-01T21:27:44.887Z,100.00
2023-04-01T21:32:16.693Z,100.00
2023-04-01T21:36:46.437Z,100.00
2023-04-01T21:41:03.395Z,100.00
2023-04-01T21:45:34.004Z,100.00
2023-04-01T21:49:54.773Z,100.00
2023-04-01T21:54:32.968Z,100.00
2023-04-01T21:59:06.438Z,100.00
2023-04-01T22:03:27.843Z,100.00
2023-04-01T22:07:34.478Z,100.00
2023-04-01T22:12:07.098Z,100.00
2023-04-01T22:16:26.634Z,100.00
2023-04-01T22:20:38.054Z,100.00
2023-04-01T22:24:42.949Z,100.00
2023-04-01T22:29:19.961Z,100.00
2023-04-01T22:33:43.849Z,100.00
2023-04-01T22:38:02.609Z,100.00
2023-04-01T22:42:27.552Z,100.00
2023-04-01T22:46:48.164Z,100.00
2023-04-01T22:51:18.883Z,100.00
2023-04-01T22:55:29.844Z,100.00
2023-04-01T22:59:38.799Z,100.00
2023-04-01T23:03:43.108Z,100.00
2023-04-01T23:08:08.851Z,100.00
2023-04-01T23:12:14.684Z,100.00
2023-04-01T23:16:19.448Z,100.00
2023-04-01T23:20:33.674Z,100.00
2023-04-01T23:25:02.182Z,100.00
2023-04-01T23:29:06.915Z,100.00
2023-04-01T23:33:21.352Z,100.00
2023-04-01T23:37:24.268Z,100.00
2023-04-01T23:41:32.692Z,100.00
2023-04-01T23:45:34.937Z,100.00
2023-04-01T23:49:42.493Z,100.00
2023-04-01T23:53:47.201Z,100.00
2023-04-01T23:58:07.304Z,100.00
